sensor_id;sensor_type;location;lat;lon;timestamp;pressure;altitude;pressure_sealevel;temperature;humidity
75577;BME280;64157;50.138;14.544;2022-12-07T00:01:33;98147.16;;;1.84;82.35
75577;BME280;64157;50.138;14.544;2022-12-07T00:04:01;98157.59;;;1.95;81.55
75577;BME280;64157;50.138;14.544;2022-12-07T00:06:32;98082.72;;;1.52;81.79
75577;BME280;64157;50.138;14.544;2022-12-07T00:08:57;98118.50;;;1.72;81.58
75577;BME280;64157;50.138;14.544;2022-12-07T00:11:24;98155.75;;;1.91;82.21
75577;BME280;64157;50.138;14.544;2022-12-07T00:13:58;98150.59;;;1.89;81.71
75577;BME280;64157;50.138;14.544;2022-12-07T00:16:26;98134.34;;;1.84;81.65
75577;BME280;64157;50.138;14.544;2022-12-07T00:18:53;98157.47;;;2.00;81.82
75577;BME280;64157;50.138;14.544;2022-12-07T00:21:21;98130.53;;;1.85;81.55
75577;BME280;64157;50.138;14.544;2022-12-07T00:23:47;98112.41;;;1.81;81.57
75577;BME280;64157;50.138;14.544;2022-12-07T00:26:16;98100.28;;;1.73;81.76
75577;BME280;64157;50.138;14.544;2022-12-07T00:28:53;98085.84;;;1.59;81.72
75577;BME280;64157;50.138;14.544;2022-12-07T00:31:20;98103.00;;;1.73;81.45
75577;BME280;64157;50.138;14.544;2022-12-07T00:33:46;98132.06;;;1.91;81.48
75577;BME280;64157;50.138;14.544;2022-12-07T00:36:14;98090.41;;;1.63;81.64
75577;BME280;64157;50.138;14.544;2022-12-07T00:38:40;98144.88;;;2.04;81.33
75577;BME280;64157;50.138;14.544;2022-12-07T00:41:12;98104.03;;;1.77;81.14
75577;BME280;64157;50.138;14.544;2022-12-07T00:43:40;98092.53;;;1.66;81.80
75577;BME280;64157;50.138;14.544;2022-12-07T00:46:06;98097.34;;;1.69;81.56
75577;BME280;64157;50.138;14.544;2022-12-07T00:48:32;98140.03;;;2.01;80.90
75577;BME280;64157;50.138;14.544;2022-12-07T00:50:57;98101.00;;;1.79;80.67
75577;BME280;64157;50.138;14.544;2022-12-07T00:53:23;98087.19;;;1.75;81.77
75577;BME280;64157;50.138;14.544;2022-12-07T00:55:48;98131.03;;;1.87;82.01
75577;BME280;64157;50.138;14.544;2022-12-07T00:58:14;98101.69;;;1.70;82.10
75577;BME280;64157;50.138;14.544;2022-12-07T01:00:41;98100.47;;;1.63;82.06
75577;BME280;64157;50.138;14.544;2022-12-07T01:03:08;98095.63;;;1.60;82.68
75577;BME280;64157;50.138;14.544;2022-12-07T01:05:34;98074.13;;;1.45;81.91
75577;BME280;64157;50.138;14.544;2022-12-07T01:08:14;98158.97;;;1.93;82.18
75577;BME280;64157;50.138;14.544;2022-12-07T01:11:09;98152.22;;;1.90;81.98
75577;BME280;64157;50.138;14.544;2022-12-07T01:13:37;98157.97;;;1.89;82.34
75577;BME280;64157;50.138;14.544;2022-12-07T01:16:05;98097.81;;;1.58;82.50
75577;BME280;64157;50.138;14.544;2022-12-07T01:18:32;98102.69;;;1.61;83.02
75577;BME280;64157;50.138;14.544;2022-12-07T01:21:03;98129.91;;;1.74;82.93
75577;BME280;64157;50.138;14.544;2022-12-07T01:23:29;98121.72;;;1.61;83.13
75577;BME280;64157;50.138;14.544;2022-12-07T01:25:59;98110.22;;;1.50;83.23
75577;BME280;64157;50.138;14.544;2022-12-07T01:28:25;98099.63;;;1.49;83.63
75577;BME280;64157;50.138;14.544;2022-12-07T01:31:02;98136.22;;;1.70;83.51
75577;BME280;64157;50.138;14.544;2022-12-07T01:33:30;98089.41;;;1.40;83.01
75577;BME280;64157;50.138;14.544;2022-12-07T01:36:03;98152.69;;;1.79;83.67
75577;BME280;64157;50.138;14.544;2022-12-07T01:38:30;98106.88;;;1.53;83.53
75577;BME280;64157;50.138;14.544;2022-12-07T01:40:56;98089.34;;;1.46;83.45
75577;BME280;64157;50.138;14.544;2022-12-07T01:43:24;98087.72;;;1.45;83.29
75577;BME280;64157;50.138;14.544;2022-12-07T01:45:51;98098.00;;;1.48;83.08
75577;BME280;64157;50.138;14.544;2022-12-07T01:48:19;98122.63;;;1.70;83.57
75577;BME280;64157;50.138;14.544;2022-12-07T01:50:48;98101.66;;;1.57;83.16
75577;BME280;64157;50.138;14.544;2022-12-07T01:53:17;98099.03;;;1.52;83.67
75577;BME280;64157;50.138;14.544;2022-12-07T01:55:46;98134.03;;;1.72;83.98
75577;BME280;64157;50.138;14.544;2022-12-07T01:58:13;98082.34;;;1.39;83.25
75577;BME280;64157;50.138;14.544;2022-12-07T02:00:40;98138.88;;;1.75;83.38
75577;BME280;64157;50.138;14.544;2022-12-07T02:03:18;98136.75;;;1.72;83.44
75577;BME280;64157;50.138;14.544;2022-12-07T02:05:46;98107.53;;;1.64;82.83
75577;BME280;64157;50.138;14.544;2022-12-07T02:08:13;98109.16;;;1.65;83.52
75577;BME280;64157;50.138;14.544;2022-12-07T02:10:39;98127.78;;;1.71;83.69
75577;BME280;64157;50.138;14.544;2022-12-07T02:13:09;98136.09;;;1.80;83.37
75577;BME280;64157;50.138;14.544;2022-12-07T02:16:15;98142.84;;;1.83;83.38
75577;BME280;64157;50.138;14.544;2022-12-07T02:27:51;98126.06;;;1.62;83.84
75577;BME280;64157;50.138;14.544;2022-12-07T02:30:22;98138.97;;;1.70;84.08
75577;BME280;64157;50.138;14.544;2022-12-07T02:32:59;98122.44;;;1.66;83.12
75577;BME280;64157;50.138;14.544;2022-12-07T02:38:07;98128.69;;;1.67;83.47
75577;BME280;64157;50.138;14.544;2022-12-07T02:40:50;98056.47;;;1.28;83.55
75577;BME280;64157;50.138;14.544;2022-12-07T02:43:27;98074.59;;;1.33;83.04
75577;BME280;64157;50.138;14.544;2022-12-07T02:45:58;98123.03;;;1.63;83.35
75577;BME280;64157;50.138;14.544;2022-12-07T02:48:27;98132.13;;;1.72;83.22
75577;BME280;64157;50.138;14.544;2022-12-07T02:50:54;98110.25;;;1.64;83.09
75577;BME280;64157;50.138;14.544;2022-12-07T02:53:36;98136.88;;;1.81;82.76
75577;BME280;64157;50.138;14.544;2022-12-07T02:56:07;98116.19;;;1.66;83.16
75577;BME280;64157;50.138;14.544;2022-12-07T02:58:48;98133.53;;;1.70;83.50
75577;BME280;64157;50.138;14.544;2022-12-07T03:01:34;98119.22;;;1.64;83.42
75577;BME280;64157;50.138;14.544;2022-12-07T03:07:00;98091.69;;;1.52;83.90
75577;BME280;64157;50.138;14.544;2022-12-07T03:09:33;98112.69;;;1.65;84.23
75577;BME280;64157;50.138;14.544;2022-12-07T03:12:10;98112.44;;;1.62;83.91
75577;BME280;64157;50.138;14.544;2022-12-07T03:14:42;98071.69;;;1.43;83.06
75577;BME280;64157;50.138;14.544;2022-12-07T03:17:16;98084.13;;;1.49;83.52
75577;BME280;64157;50.138;14.544;2022-12-07T03:19:45;98113.19;;;1.67;83.64
75577;BME280;64157;50.138;14.544;2022-12-07T03:22:13;98086.53;;;1.51;83.84
75577;BME280;64157;50.138;14.544;2022-12-07T03:24:50;98044.56;;;1.24;83.83
75577;BME280;64157;50.138;14.544;2022-12-07T03:27:31;98073.31;;;1.44;83.66
75577;BME280;64157;50.138;14.544;2022-12-07T03:30:03;98097.81;;;1.58;83.72
75577;BME280;64157;50.138;14.544;2022-12-07T03:32:43;98092.91;;;1.60;84.02
75577;BME280;64157;50.138;14.544;2022-12-07T03:35:30;98076.84;;;1.45;83.95
75577;BME280;64157;50.138;14.544;2022-12-07T03:37:59;98040.16;;;1.28;83.27
75577;BME280;64157;50.138;14.544;2022-12-07T03:43:00;98047.63;;;1.36;83.25
75577;BME280;64157;50.138;14.544;2022-12-07T03:45:41;98016.56;;;1.24;83.34
75577;BME280;64157;50.138;14.544;2022-12-07T03:48:33;98032.50;;;1.30;83.57
75577;BME280;64157;50.138;14.544;2022-12-07T03:53:42;98033.69;;;1.24;83.48
75577;BME280;64157;50.138;14.544;2022-12-07T03:56:10;98046.22;;;1.39;83.47
75577;BME280;64157;50.138;14.544;2022-12-07T03:58:37;98050.84;;;1.38;83.38
75577;BME280;64157;50.138;14.544;2022-12-07T04:01:03;98015.06;;;1.18;84.02
75577;BME280;64157;50.138;14.544;2022-12-07T04:03:29;98055.28;;;1.34;83.63
75577;BME280;64157;50.138;14.544;2022-12-07T04:05:54;98041.75;;;1.29;83.54
75577;BME280;64157;50.138;14.544;2022-12-07T04:08:20;98064.28;;;1.49;83.37
75577;BME280;64157;50.138;14.544;2022-12-07T04:10:45;98006.47;;;1.11;83.63
75577;BME280;64157;50.138;14.544;2022-12-07T04:13:11;98069.13;;;1.52;83.21
75577;BME280;64157;50.138;14.544;2022-12-07T04:15:36;98023.31;;;1.26;83.17
75577;BME280;64157;50.138;14.544;2022-12-07T04:18:02;98044.59;;;1.38;82.86
75577;BME280;64157;50.138;14.544;2022-12-07T04:20:27;98077.97;;;1.57;82.84
75577;BME280;64157;50.138;14.544;2022-12-07T04:22:53;98039.28;;;1.47;82.84
75577;BME280;64157;50.138;14.544;2022-12-07T04:25:18;98068.66;;;1.63;83.00
75577;BME280;64157;50.138;14.544;2022-12-07T04:27:44;98000.06;;;1.20;82.79
75577;BME280;64157;50.138;14.544;2022-12-07T04:30:09;98010.84;;;1.25;82.85
75577;BME280;64157;50.138;14.544;2022-12-07T04:32:35;98043.63;;;1.48;82.60
75577;BME280;64157;50.138;14.544;2022-12-07T04:35:00;98041.22;;;1.46;81.94
75577;BME280;64157;50.138;14.544;2022-12-07T04:37:26;98077.69;;;1.59;82.02
75577;BME280;64157;50.138;14.544;2022-12-07T04:39:51;98064.16;;;1.54;82.42
75577;BME280;64157;50.138;14.544;2022-12-07T04:42:17;98011.75;;;1.21;82.22
75577;BME280;64157;50.138;14.544;2022-12-07T04:44:42;98055.97;;;1.40;82.66
75577;BME280;64157;50.138;14.544;2022-12-07T04:47:08;98054.47;;;1.34;82.42
75577;BME280;64157;50.138;14.544;2022-12-07T04:49:33;98045.97;;;1.22;82.72
75577;BME280;64157;50.138;14.544;2022-12-07T04:51:59;98067.84;;;1.30;82.79
75577;BME280;64157;50.138;14.544;2022-12-07T04:54:24;98042.09;;;1.09;83.25
75577;BME280;64157;50.138;14.544;2022-12-07T04:56:50;98070.28;;;1.13;83.34
75577;BME280;64157;50.138;14.544;2022-12-07T04:59:16;98031.56;;;0.89;83.10
75577;BME280;64157;50.138;14.544;2022-12-07T05:01:42;98008.16;;;0.74;83.31
75577;BME280;64157;50.138;14.544;2022-12-07T05:04:08;98050.56;;;0.89;83.81
75577;BME280;64157;50.138;14.544;2022-12-07T05:06:34;98055.44;;;0.73;84.20
75577;BME280;64157;50.138;14.544;2022-12-07T05:09:00;98026.72;;;0.48;84.80
75577;BME280;64157;50.138;14.544;2022-12-07T05:11:25;98027.09;;;0.42;85.27
75577;BME280;64157;50.138;14.544;2022-12-07T05:14:05;98053.34;;;0.65;84.94
75577;BME280;64157;50.138;14.544;2022-12-07T05:16:31;98053.13;;;0.61;84.73
75577;BME280;64157;50.138;14.544;2022-12-07T05:18:56;98051.53;;;0.60;84.95
75577;BME280;64157;50.138;14.544;2022-12-07T05:21:22;98051.44;;;0.65;84.66
75577;BME280;64157;50.138;14.544;2022-12-07T05:23:47;98048.31;;;0.58;84.63
75577;BME280;64157;50.138;14.544;2022-12-07T05:26:13;97987.50;;;0.17;84.71
75577;BME280;64157;50.138;14.544;2022-12-07T05:28:38;98061.72;;;0.68;84.49
75577;BME280;64157;50.138;14.544;2022-12-07T05:31:04;98054.25;;;0.60;84.35
75577;BME280;64157;50.138;14.544;2022-12-07T05:33:30;97998.78;;;0.29;84.55
75577;BME280;64157;50.138;14.544;2022-12-07T05:35:55;98033.97;;;0.53;84.29
75577;BME280;64157;50.138;14.544;2022-12-07T05:38:21;98051.44;;;0.47;84.65
75577;BME280;64157;50.138;14.544;2022-12-07T05:40:50;98048.28;;;0.40;84.96
75577;BME280;64157;50.138;14.544;2022-12-07T05:43:16;97989.50;;;0.11;84.31
75577;BME280;64157;50.138;14.544;2022-12-07T05:45:42;98052.03;;;0.44;84.62
75577;BME280;64157;50.138;14.544;2022-12-07T05:48:07;98006.97;;;0.24;83.91
75577;BME280;64157;50.138;14.544;2022-12-07T05:50:33;98046.69;;;0.57;82.78
75577;BME280;64157;50.138;14.544;2022-12-07T05:52:58;97927.53;;;-0.01;82.19
75577;BME280;64157;50.138;14.544;2022-12-07T05:55:24;97991.72;;;0.47;81.23
75577;BME280;64157;50.138;14.544;2022-12-07T05:57:49;98011.66;;;0.37;81.37
75577;BME280;64157;50.138;14.544;2022-12-07T06:00:33;98016.75;;;0.44;81.48
75577;BME280;64157;50.138;14.544;2022-12-07T06:03:07;98013.63;;;0.31;81.83
75577;BME280;64157;50.138;14.544;2022-12-07T06:05:33;98027.81;;;0.28;82.10
75577;BME280;64157;50.138;14.544;2022-12-07T06:07:59;98028.53;;;0.34;82.06
75577;BME280;64157;50.138;14.544;2022-12-07T06:10:24;98048.81;;;0.42;81.56
75577;BME280;64157;50.138;14.544;2022-12-07T06:12:50;98025.97;;;0.24;81.60
75577;BME280;64157;50.138;14.544;2022-12-07T06:15:15;98018.31;;;0.07;82.51
75577;BME280;64157;50.138;14.544;2022-12-07T06:17:41;98038.84;;;0.13;83.04
75577;BME280;64157;50.138;14.544;2022-12-07T06:20:07;97987.06;;;-0.33;83.12
75577;BME280;64157;50.138;14.544;2022-12-07T06:22:32;97992.53;;;-0.38;83.72
75577;BME280;64157;50.138;14.544;2022-12-07T06:24:58;98012.69;;;-0.20;83.20
75577;BME280;64157;50.138;14.544;2022-12-07T06:27:23;98020.44;;;-0.14;83.06
75577;BME280;64157;50.138;14.544;2022-12-07T06:29:49;98015.16;;;-0.24;83.28
75577;BME280;64157;50.138;14.544;2022-12-07T06:32:14;98002.31;;;-0.42;83.73
75577;BME280;64157;50.138;14.544;2022-12-07T06:34:40;98021.78;;;-0.35;83.72
75577;BME280;64157;50.138;14.544;2022-12-07T06:37:06;98033.06;;;-0.28;83.88
75577;BME280;64157;50.138;14.544;2022-12-07T06:39:31;98051.16;;;-0.18;83.57
75577;BME280;64157;50.138;14.544;2022-12-07T06:41:57;98056.78;;;-0.15;83.25
75577;BME280;64157;50.138;14.544;2022-12-07T06:44:23;98041.13;;;-0.18;82.78
75577;BME280;64157;50.138;14.544;2022-12-07T06:46:49;98038.78;;;-0.29;83.68
75577;BME280;64157;50.138;14.544;2022-12-07T06:49:15;97981.88;;;-0.82;83.82
75577;BME280;64157;50.138;14.544;2022-12-07T06:51:41;98020.09;;;-0.55;83.97
75577;BME280;64157;50.138;14.544;2022-12-07T06:54:08;98021.47;;;-0.57;84.06
75577;BME280;64157;50.138;14.544;2022-12-07T06:56:34;98059.66;;;-0.30;83.78
75577;BME280;64157;50.138;14.544;2022-12-07T06:58:59;98034.59;;;-0.69;84.64
75577;BME280;64157;50.138;14.544;2022-12-07T07:01:25;98042.19;;;-0.72;85.62
75577;BME280;64157;50.138;14.544;2022-12-07T07:03:50;98058.56;;;-0.53;85.33
75577;BME280;64157;50.138;14.544;2022-12-07T07:06:16;98051.84;;;-0.31;83.98
75577;BME280;64157;50.138;14.544;2022-12-07T07:08:41;98066.91;;;0.04;83.36
75577;BME280;64157;50.138;14.544;2022-12-07T07:11:08;98017.09;;;-0.06;82.28
75577;BME280;64157;50.138;14.544;2022-12-07T07:13:33;98025.44;;;0.22;81.70
75577;BME280;64157;50.138;14.544;2022-12-07T07:15:59;98008.81;;;0.28;80.92
75577;BME280;64157;50.138;14.544;2022-12-07T07:18:25;98017.63;;;0.39;80.89
75577;BME280;64157;50.138;14.544;2022-12-07T07:20:51;98014.25;;;0.28;80.96
75577;BME280;64157;50.138;14.544;2022-12-07T07:23:17;98031.47;;;0.38;81.29
75577;BME280;64157;50.138;14.544;2022-12-07T07:25:44;98024.91;;;0.44;80.76
75577;BME280;64157;50.138;14.544;2022-12-07T07:28:09;97961.03;;;0.09;80.56
75577;BME280;64157;50.138;14.544;2022-12-07T07:30:35;97990.47;;;0.20;80.23
75577;BME280;64157;50.138;14.544;2022-12-07T07:33:02;98048.84;;;0.37;80.61
75577;BME280;64157;50.138;14.544;2022-12-07T07:35:28;97992.13;;;-0.03;80.93
75577;BME280;64157;50.138;14.544;2022-12-07T07:37:54;98015.94;;;0.00;81.08
75577;BME280;64157;50.138;14.544;2022-12-07T07:40:20;98009.03;;;1.67;76.83
75577;BME280;64157;50.138;14.544;2022-12-07T07:42:53;98032.69;;;3.29;69.23
75577;BME280;64157;50.138;14.544;2022-12-07T07:45:20;98035.25;;;3.57;67.89
75577;BME280;64157;50.138;14.544;2022-12-07T07:47:46;98056.75;;;4.20;65.99
75577;BME280;64157;50.138;14.544;2022-12-07T07:50:12;98057.19;;;4.13;65.51
75577;BME280;64157;50.138;14.544;2022-12-07T07:52:37;98045.22;;;4.23;64.78
75577;BME280;64157;50.138;14.544;2022-12-07T07:55:03;98011.94;;;4.12;64.55
75577;BME280;64157;50.138;14.544;2022-12-07T07:57:29;98002.22;;;3.98;64.69
75577;BME280;64157;50.138;14.544;2022-12-07T07:59:54;98032.28;;;4.63;63.19
75577;BME280;64157;50.138;14.544;2022-12-07T08:02:20;98059.16;;;4.95;62.37
75577;BME280;64157;50.138;14.544;2022-12-07T08:04:46;98025.25;;;3.43;67.80
75577;BME280;64157;50.138;14.544;2022-12-07T08:07:12;98053.38;;;3.08;69.16
75577;BME280;64157;50.138;14.544;2022-12-07T08:09:38;98040.00;;;2.62;71.02
75577;BME280;64157;50.138;14.544;2022-12-07T08:12:04;97992.75;;;2.44;70.50
75577;BME280;64157;50.138;14.544;2022-12-07T08:14:29;98049.84;;;2.22;72.44
75577;BME280;64157;50.138;14.544;2022-12-07T08:16:55;98053.59;;;1.98;73.89
75577;BME280;64157;50.138;14.544;2022-12-07T08:19:20;98033.78;;;1.52;75.39
75577;BME280;64157;50.138;14.544;2022-12-07T08:21:46;98047.84;;;1.54;75.85
75577;BME280;64157;50.138;14.544;2022-12-07T08:24:11;98061.97;;;1.56;76.50
75577;BME280;64157;50.138;14.544;2022-12-07T08:26:37;98044.22;;;1.45;76.63
75577;BME280;64157;50.138;14.544;2022-12-07T08:29:02;98057.09;;;1.39;76.73
75577;BME280;64157;50.138;14.544;2022-12-07T08:31:28;98035.44;;;1.34;76.88
75577;BME280;64157;50.138;14.544;2022-12-07T08:33:54;98058.84;;;1.49;77.41
75577;BME280;64157;50.138;14.544;2022-12-07T08:36:20;98037.56;;;1.37;76.79
75577;BME280;64157;50.138;14.544;2022-12-07T08:38:46;98059.13;;;1.47;78.16
75577;BME280;64157;50.138;14.544;2022-12-07T08:41:12;98031.88;;;1.20;77.97
75577;BME280;64157;50.138;14.544;2022-12-07T08:43:37;98061.72;;;1.38;78.21
75577;BME280;64157;50.138;14.544;2022-12-07T08:48:55;98059.75;;;1.25;79.19
75577;BME280;64157;50.138;14.544;2022-12-07T08:51:22;98038.28;;;1.10;78.22
75577;BME280;64157;50.138;14.544;2022-12-07T08:53:49;98056.09;;;1.35;78.25
75577;BME280;64157;50.138;14.544;2022-12-07T08:56:16;98052.94;;;1.28;78.63
75577;BME280;64157;50.138;14.544;2022-12-07T08:58:42;98032.25;;;1.13;78.57
75577;BME280;64157;50.138;14.544;2022-12-07T09:01:08;98016.13;;;1.03;78.32
75577;BME280;64157;50.138;14.544;2022-12-07T09:03:33;98034.88;;;1.18;78.09
75577;BME280;64157;50.138;14.544;2022-12-07T09:05:59;98033.28;;;1.17;78.70
75577;BME280;64157;50.138;14.544;2022-12-07T09:08:28;98058.81;;;1.35;77.79
75577;BME280;64157;50.138;14.544;2022-12-07T09:10:55;98051.06;;;1.42;78.37
75577;BME280;64157;50.138;14.544;2022-12-07T09:13:20;98002.44;;;1.08;77.74
75577;BME280;64157;50.138;14.544;2022-12-07T09:15:46;98034.13;;;1.31;78.20
75577;BME280;64157;50.138;14.544;2022-12-07T09:18:11;98032.53;;;1.44;77.75
75577;BME280;64157;50.138;14.544;2022-12-07T09:20:37;98036.97;;;1.54;77.54
75577;BME280;64157;50.138;14.544;2022-12-07T09:23:05;98022.63;;;1.67;77.02
75577;BME280;64157;50.138;14.544;2022-12-07T09:25:31;98062.44;;;2.18;75.45
75577;BME280;64157;50.138;14.544;2022-12-07T09:27:57;98064.06;;;2.19;74.93
75577;BME280;64157;50.138;14.544;2022-12-07T09:30:23;98063.38;;;2.13;74.77
75577;BME280;64157;50.138;14.544;2022-12-07T09:32:49;98033.53;;;1.94;74.96
75577;BME280;64157;50.138;14.544;2022-12-07T09:35:14;97991.31;;;1.83;74.31
75577;BME280;64157;50.138;14.544;2022-12-07T09:37:40;98032.81;;;2.02;74.66
75577;BME280;64157;50.138;14.544;2022-12-07T09:40:06;98001.56;;;2.00;74.92
75577;BME280;64157;50.138;14.544;2022-12-07T09:42:37;98037.94;;;2.18;74.57
75577;BME280;64157;50.138;14.544;2022-12-07T09:45:05;98008.00;;;2.04;74.56
75577;BME280;64157;50.138;14.544;2022-12-07T09:47:32;98006.00;;;2.09;74.89
75577;BME280;64157;50.138;14.544;2022-12-07T09:50:12;98015.56;;;2.21;74.03
75577;BME280;64157;50.138;14.544;2022-12-07T09:52:38;98035.41;;;2.21;73.74
75577;BME280;64157;50.138;14.544;2022-12-07T09:55:12;98016.47;;;2.16;74.44
75577;BME280;64157;50.138;14.544;2022-12-07T09:57:37;98057.41;;;2.38;74.46
75577;BME280;64157;50.138;14.544;2022-12-07T10:00:10;98032.78;;;2.30;74.46
75577;BME280;64157;50.138;14.544;2022-12-07T10:05:04;98038.84;;;2.40;74.54
75577;BME280;64157;50.138;14.544;2022-12-07T10:07:30;98023.13;;;2.24;74.04
75577;BME280;64157;50.138;14.544;2022-12-07T10:09:55;98032.97;;;2.33;74.12
75577;BME280;64157;50.138;14.544;2022-12-07T10:12:21;98042.25;;;2.46;74.60
75577;BME280;64157;50.138;14.544;2022-12-07T10:15:00;98054.25;;;2.45;75.11
75577;BME280;64157;50.138;14.544;2022-12-07T10:17:38;98031.97;;;2.43;74.94
75577;BME280;64157;50.138;14.544;2022-12-07T10:22:38;98028.91;;;2.58;74.51
75577;BME280;64157;50.138;14.544;2022-12-07T10:25:20;98000.00;;;2.35;73.56
75577;BME280;64157;50.138;14.544;2022-12-07T10:28:01;98025.09;;;2.59;75.05
75577;BME280;64157;50.138;14.544;2022-12-07T10:30:27;98038.81;;;2.90;74.52
75577;BME280;64157;50.138;14.544;2022-12-07T10:32:53;98046.50;;;2.88;74.47
75577;BME280;64157;50.138;14.544;2022-12-07T10:35:28;98005.13;;;2.50;73.33
75577;BME280;64157;50.138;14.544;2022-12-07T10:37:58;98041.00;;;2.66;74.12
75577;BME280;64157;50.138;14.544;2022-12-07T10:40:26;97995.66;;;2.34;74.73
75577;BME280;64157;50.138;14.544;2022-12-07T10:45:29;98010.81;;;2.40;75.80
75577;BME280;64157;50.138;14.544;2022-12-07T10:50:42;98036.09;;;2.54;75.85
75577;BME280;64157;50.138;14.544;2022-12-07T10:56:06;98018.78;;;2.72;74.57
75577;BME280;64157;50.138;14.544;2022-12-07T11:03:48;98044.78;;;2.78;74.05
75577;BME280;64157;50.138;14.544;2022-12-07T11:06:30;97982.75;;;2.39;74.53
75577;BME280;64157;50.138;14.544;2022-12-07T11:12:04;97957.75;;;2.37;74.82
75577;BME280;64157;50.138;14.544;2022-12-07T11:14:46;97994.22;;;3.62;72.35
75577;BME280;64157;50.138;14.544;2022-12-07T11:30:23;97995.31;;;5.17;67.04
75577;BME280;64157;50.138;14.544;2022-12-07T11:38:14;97972.78;;;3.77;70.94
75577;BME280;64157;50.138;14.544;2022-12-07T11:40:42;97970.06;;;3.77;71.02
75577;BME280;64157;50.138;14.544;2022-12-07T11:43:17;97988.16;;;3.73;71.88
75577;BME280;64157;50.138;14.544;2022-12-07T11:45:50;97985.03;;;3.58;71.07
75577;BME280;64157;50.138;14.544;2022-12-07T11:48:32;97985.41;;;3.65;72.40
75577;BME280;64157;50.138;14.544;2022-12-07T11:51:00;97960.00;;;3.56;71.88
75577;BME280;64157;50.138;14.544;2022-12-07T11:53:32;97974.66;;;4.08;70.43
75577;BME280;64157;50.138;14.544;2022-12-07T11:56:12;97984.84;;;4.59;68.90
75577;BME280;64157;50.138;14.544;2022-12-07T12:04:03;97948.75;;;6.19;63.48
75577;BME280;64157;50.138;14.544;2022-12-07T12:06:32;97947.88;;;6.57;60.43
75577;BME280;64157;50.138;14.544;2022-12-07T12:22:12;97929.41;;;4.50;66.18
75577;BME280;64157;50.138;14.544;2022-12-07T12:24:40;97951.09;;;4.38;68.75
75577;BME280;64157;50.138;14.544;2022-12-07T12:27:15;97916.09;;;3.66;69.88
75577;BME280;64157;50.138;14.544;2022-12-07T12:29:43;97948.53;;;3.76;71.57
75577;BME280;64157;50.138;14.544;2022-12-07T12:32:24;97952.28;;;3.49;71.40
75577;BME280;64157;50.138;14.544;2022-12-07T12:35:01;97898.19;;;3.11;72.22
75577;BME280;64157;50.138;14.544;2022-12-07T12:42:49;97948.75;;;3.48;72.90
75577;BME280;64157;50.138;14.544;2022-12-07T12:45:22;97955.00;;;3.49;72.54
75577;BME280;64157;50.138;14.544;2022-12-07T12:51:35;97948.91;;;3.52;73.18
75577;BME280;64157;50.138;14.544;2022-12-07T12:54:04;97948.44;;;3.50;73.74
75577;BME280;64157;50.138;14.544;2022-12-07T13:01:47;97942.38;;;3.62;70.84
75577;BME280;64157;50.138;14.544;2022-12-07T13:06:50;97910.56;;;3.48;70.67
75577;BME280;64157;50.138;14.544;2022-12-07T13:11:59;97917.34;;;3.60;70.56
75577;BME280;64157;50.138;14.544;2022-12-07T13:19:56;97909.56;;;3.44;69.72
75577;BME280;64157;50.138;14.544;2022-12-07T13:22:43;97919.06;;;3.47;68.10
75577;BME280;64157;50.138;14.544;2022-12-07T13:27:51;97895.03;;;3.18;69.97
75577;BME280;64157;50.138;14.544;2022-12-07T13:30:21;97876.06;;;3.13;69.28
75577;BME280;64157;50.138;14.544;2022-12-07T13:32:55;97947.03;;;3.61;69.80
75577;BME280;64157;50.138;14.544;2022-12-07T13:35:37;97889.28;;;3.28;70.29
75577;BME280;64157;50.138;14.544;2022-12-07T13:38:14;97891.06;;;3.33;68.50
75577;BME280;64157;50.138;14.544;2022-12-07T13:40:41;97924.72;;;3.59;68.74
75577;BME280;64157;50.138;14.544;2022-12-07T13:43:15;97932.59;;;3.61;69.33
75577;BME280;64157;50.138;14.544;2022-12-07T13:45:42;97909.25;;;3.46;69.07
75577;BME280;64157;50.138;14.544;2022-12-07T13:48:19;97886.56;;;3.28;69.10
75577;BME280;64157;50.138;14.544;2022-12-07T13:50:54;97904.72;;;3.41;69.42
75577;BME280;64157;50.138;14.544;2022-12-07T13:53:20;97891.19;;;3.19;70.67
75577;BME280;64157;50.138;14.544;2022-12-07T13:55:46;97908.88;;;3.30;70.62
75577;BME280;64157;50.138;14.544;2022-12-07T13:58:12;97917.75;;;3.44;70.29
75577;BME280;64157;50.138;14.544;2022-12-07T14:00:39;97918.38;;;3.41;70.40
75577;BME280;64157;50.138;14.544;2022-12-07T14:05:38;97914.34;;;3.39;70.43
75577;BME280;64157;50.138;14.544;2022-12-07T14:08:22;97903.50;;;3.47;67.19
75577;BME280;64157;50.138;14.544;2022-12-07T14:15:50;97930.47;;;3.58;67.06
75577;BME280;64157;50.138;14.544;2022-12-07T14:18:48;97944.41;;;3.47;67.86
75577;BME280;64157;50.138;14.544;2022-12-07T14:21:19;97888.84;;;3.04;68.24
75577;BME280;64157;50.138;14.544;2022-12-07T14:23:45;97864.81;;;2.75;69.92
75577;BME280;64157;50.138;14.544;2022-12-07T14:26:27;97891.09;;;2.79;70.69
75577;BME280;64157;50.138;14.544;2022-12-07T14:28:52;97866.66;;;2.66;70.43
75577;BME280;64157;50.138;14.544;2022-12-07T14:31:21;97918.59;;;2.92;71.25
75577;BME280;64157;50.138;14.544;2022-12-07T14:33:49;97908.63;;;2.65;71.64
75577;BME280;64157;50.138;14.544;2022-12-07T14:36:14;97930.97;;;2.75;72.66
75577;BME280;64157;50.138;14.544;2022-12-07T14:38:40;97940.44;;;2.78;73.13
75577;BME280;64157;50.138;14.544;2022-12-07T14:41:12;97876.44;;;2.44;72.81
75577;BME280;64157;50.138;14.544;2022-12-07T14:44:11;97923.16;;;2.60;73.52
75577;BME280;64157;50.138;14.544;2022-12-07T14:46:38;97928.34;;;2.48;74.40
75577;BME280;64157;50.138;14.544;2022-12-07T14:49:04;97870.41;;;2.11;74.94
75577;BME280;64157;50.138;14.544;2022-12-07T14:51:31;97875.56;;;1.99;75.53
75577;BME280;64157;50.138;14.544;2022-12-07T14:53:59;97935.72;;;2.25;76.23
75577;BME280;64157;50.138;14.544;2022-12-07T14:56:26;97928.56;;;2.16;76.81
75577;BME280;64157;50.138;14.544;2022-12-07T14:59:02;97882.78;;;1.82;77.17
75577;BME280;64157;50.138;14.544;2022-12-07T15:01:28;97830.75;;;1.33;77.63
75577;BME280;64157;50.138;14.544;2022-12-07T15:03:53;97875.84;;;1.62;78.00
75577;BME280;64157;50.138;14.544;2022-12-07T15:06:19;97875.06;;;1.48;78.91